Time;durP1;ratioP1;P1;durP2;ratioP2;P2;SDS_P1;SDS_P2;PMS_P1;PMS_P2;Temp;Humidity;BMP_temperature;BMP_pressure;BME280_temperature;BME280_humidity;BME280_pressure;Samples;Min_cycle;Max_cycle;Signal;HPM_P1;HPM_P2
2020/12/16 00:02:32;;;;;;;137.73;38.43;;;7.80;99.90;;;5.66;100.00;101375.47;4961806;28;20245;-80
2020/12/16 00:05:18;;;;;;;128.30;43.07;;;7.80;99.90;;;5.70;100.00;101377.19;4962486;28;20541;-80
2020/12/16 00:08:03;;;;;;;125.53;39.47;;;7.80;99.90;;;5.70;100.00;101372.03;4954672;28;20769;-80
2020/12/16 00:10:48;;;;;;;139.57;39.20;;;7.80;99.90;;;5.72;100.00;101378.06;4956045;28;20210;-78
2020/12/16 00:13:34;;;;;;;124.30;42.67;;;7.80;99.90;;;5.72;100.00;101383.19;4956255;28;20242;-80
2020/12/16 00:16:20;;;;;;;150.10;39.30;;;7.80;99.90;;;5.71;100.00;101379.75;4958422;28;20266;-80
2020/12/16 00:19:05;;;;;;;141.13;39.87;;;7.80;99.90;;;5.70;100.00;101377.19;4955776;28;20241;-79
2020/12/16 00:21:50;;;;;;;160.73;39.90;;;7.80;99.90;;;5.69;100.00;101366.06;4954171;28;20254;-79
2020/12/16 00:24:35;;;;;;;120.33;38.27;;;7.80;99.90;;;5.62;100.00;101367.78;4956377;28;20642;-79
2020/12/16 00:27:20;;;;;;;109.77;36.20;;;7.80;99.90;;;5.56;100.00;101374.56;4954667;28;20214;-80
2020/12/16 00:30:08;;;;;;;112.20;38.93;;;7.80;99.90;;;5.64;100.00;101365.22;4957968;28;20693;-80
2020/12/16 00:32:53;;;;;;;98.27;35.00;;;7.90;99.90;;;5.62;100.00;101359.19;4957149;28;20294;-80
2020/12/16 00:35:39;;;;;;;95.10;35.10;;;7.80;99.90;;;5.66;100.00;101360.94;4957714;28;20230;-79
2020/12/16 00:38:24;;;;;;;92.83;35.40;;;7.80;99.90;;;5.70;100.00;101366.91;4958847;28;20746;-80
2020/12/16 00:41:09;;;;;;;84.77;32.60;;;7.90;99.90;;;5.59;100.00;101365.16;4960024;28;20217;-80
2020/12/16 00:43:54;;;;;;;79.37;35.20;;;7.80;99.90;;;5.65;100.00;101373.75;4957598;28;20237;-80
2020/12/16 00:46:40;;;;;;;84.67;34.97;;;7.80;99.90;;;5.68;100.00;101379.75;4953055;28;20220;-80
2020/12/16 00:49:26;;;;;;;75.47;32.63;;;7.90;99.90;;;5.66;100.00;101388.31;4956069;28;20213;-80
2020/12/16 00:52:11;;;;;;;87.33;33.20;;;7.80;99.90;;;5.67;100.00;101375.47;4960325;28;20611;-79
2020/12/16 00:54:57;;;;;;;96.17;33.97;;;7.80;99.90;;;5.61;100.00;101368.63;4961475;28;20222;-80
2020/12/16 00:57:43;;;;;;;94.27;33.57;;;7.80;99.90;;;5.60;100.00;101373.75;4963188;28;20226;-80
2020/12/16 01:00:29;;;;;;;81.27;33.30;;;7.80;99.90;;;5.62;100.00;101370.34;4951228;28;20202;-81
2020/12/16 01:03:15;;;;;;;91.67;36.10;;;7.80;99.90;;;5.66;100.00;101376.31;4956626;28;20209;-80
2020/12/16 01:06:00;;;;;;;79.53;32.67;;;7.80;99.90;;;5.69;100.00;101375.50;4943448;28;20578;-79
2020/12/16 01:08:46;;;;;;;84.77;33.73;;;7.80;99.90;;;5.70;100.00;101374.63;4944436;28;20221;-80
2020/12/16 01:11:34;;;;;;;87.03;35.87;;;7.80;99.90;;;5.70;100.00;101383.19;4951777;28;20323;-81
2020/12/16 01:14:19;;;;;;;91.07;35.97;;;7.80;99.90;;;5.68;100.00;101390.00;4952770;28;20561;-79
2020/12/16 01:17:05;;;;;;;118.63;36.80;;;7.80;99.90;;;5.66;100.00;101384.03;4962833;28;20679;-80
2020/12/16 01:19:51;;;;;;;102.70;36.83;;;7.80;99.90;;;5.58;100.00;101389.13;4955478;28;20294;-79
2020/12/16 01:22:40;;;;;;;95.57;33.93;;;7.90;99.90;;;5.49;100.00;101390.78;4963322;28;20218;-81
2020/12/16 01:25:25;;;;;;;106.40;33.60;;;7.90;99.90;;;5.48;100.00;101386.50;4957847;28;20282;-79
2020/12/16 01:28:10;;;;;;;85.23;32.10;;;7.80;99.90;;;5.40;100.00;101384.78;4955126;28;20689;-80
2020/12/16 01:30:55;;;;;;;80.50;30.83;;;7.80;99.90;;;5.39;100.00;101393.31;4957712;28;20210;-80
2020/12/16 01:33:41;;;;;;;95.10;35.13;;;7.80;99.90;;;5.38;100.00;101395.88;4963477;28;20234;-79
2020/12/16 01:36:27;;;;;;;111.70;33.43;;;7.80;99.90;;;5.32;100.00;101394.13;4961986;28;20234;-80
2020/12/16 01:39:13;;;;;;;98.27;31.33;;;7.80;99.90;;;5.14;100.00;101402.59;4961627;28;20225;-80
2020/12/16 01:41:58;;;;;;;89.57;29.10;;;7.80;99.90;;;5.07;100.00;101418.78;4962725;28;20238;-80
2020/12/16 01:44:44;;;;;;;143.43;32.30;;;7.70;99.90;;;4.95;100.00;101411.84;4960921;28;20222;-80
2020/12/16 01:47:29;;;;;;;179.07;34.73;;;7.70;99.90;;;4.83;100.00;101417.75;4961782;28;20284;-80
2020/12/16 01:50:15;;;;;;;173.37;34.50;;;7.70;99.90;;;4.70;100.00;101421.91;4950696;28;20198;-80
2020/12/16 01:53:02;;;;;;;93.17;27.43;;;7.70;99.90;;;4.69;100.00;101420.19;4962159;28;20702;-80
2020/12/16 01:55:48;;;;;;;117.13;28.13;;;7.70;99.90;;;4.64;100.00;101431.25;4953861;28;20247;-81
2020/12/16 01:58:36;;;;;;;145.93;30.60;;;7.60;99.90;;;4.56;100.00;101434.59;4960926;28;20239;-81
2020/12/16 02:01:24;;;;;;;237.90;33.83;;;7.60;99.90;;;4.53;100.00;101437.16;4960595;28;20213;-80
2020/12/16 02:04:12;;;;;;;274.80;36.37;;;7.50;99.90;;;4.48;100.00;101441.34;4957118;28;20274;-81
2020/12/16 02:07:00;;;;;;;223.57;34.93;;;7.50;99.90;;;4.52;100.00;101440.53;4960568;28;20245;-80
2020/12/16 02:09:48;;;;;;;285.47;37.63;;;7.50;99.90;;;4.52;100.00;101440.53;4947654;28;20283;-80
2020/12/16 02:12:35;;;;;;;261.57;37.50;;;7.50;99.90;;;4.52;100.00;101443.09;4955264;28;20209;-81
2020/12/16 02:15:20;;;;;;;239.73;34.93;;;7.40;99.90;;;4.49;100.00;101435.41;4962105;28;20772;-80
2020/12/16 02:18:06;;;;;;;302.83;42.10;;;7.40;99.90;;;4.44;100.00;101437.03;4960520;28;20210;-79
2020/12/16 02:20:51;;;;;;;314.07;41.87;;;7.30;99.90;;;4.41;100.00;101429.31;4955780;28;20222;-79
2020/12/16 02:23:42;;;;;;;259.00;36.60;;;7.30;99.90;;;4.39;100.00;101434.44;4960767;28;20230;-80
2020/12/16 02:26:30;;;;;;;231.27;37.63;;;7.30;99.90;;;4.38;100.00;101431.84;4960254;28;20230;-80
2020/12/16 02:29:15;;;;;;;213.57;35.23;;;7.30;99.90;;;4.34;100.00;101442.91;4961868;28;20227;-79
2020/12/16 02:32:02;;;;;;;227.53;33.47;;;7.20;99.90;;;4.31;100.00;101442.88;4962767;28;20241;-80
2020/12/16 02:34:48;;;;;;;233.13;35.13;;;7.20;99.90;;;4.27;100.00;101453.97;4963638;28;20241;-80
2020/12/16 02:37:34;;;;;;;215.40;33.77;;;7.10;99.90;;;4.19;100.00;101453.84;4962893;28;20467;-80
2020/12/16 02:40:19;;;;;;;171.83;31.13;;;7.10;99.90;;;4.12;100.00;101452.94;4962622;28;20236;-80
2020/12/16 02:43:05;;;;;;;142.10;28.30;;;7.10;99.90;;;4.07;100.00;101452.00;4957794;28;20299;-80
2020/12/16 02:45:50;;;;;;;178.50;32.10;;;7.10;99.90;;;4.02;100.00;101440.88;4961011;28;20206;-79
2020/12/16 02:48:35;;;;;;;131.37;27.93;;;7.00;99.90;;;3.97;100.00;101445.06;4951459;28;20269;-80
2020/12/16 02:51:20;;;;;;;149.17;28.23;;;7.00;99.90;;;3.96;100.00;101445.94;4958473;28;20225;-80
2020/12/16 02:54:06;;;;;;;116.00;25.87;;;7.00;99.90;;;3.95;100.00;101446.75;4962046;28;20670;-80
2020/12/16 02:56:53;;;;;;;127.87;29.03;;;6.90;99.90;;;3.96;100.00;101451.91;4953079;28;20791;-80
2020/12/16 02:59:52;;;;;;;143.47;28.57;;;6.90;99.90;;;3.95;100.00;101447.59;4963153;28;20265;-80
2020/12/16 03:02:37;;;;;;;110.37;26.93;;;6.90;99.90;;;3.82;100.00;101443.19;4959821;28;20213;-79
2020/12/16 03:05:22;;;;;;;98.40;23.30;;;6.80;99.90;;;3.76;100.00;101436.28;4966330;28;20706;-82
2020/12/16 03:08:10;;;;;;;115.90;26.23;;;6.80;99.90;;;3.72;100.00;101432.00;4963243;28;20205;-79
2020/12/16 03:10:55;;;;;;;129.03;26.53;;;6.70;99.90;;;3.69;100.00;101427.69;4961904;28;20270;-80
2020/12/16 03:13:40;;;;;;;108.63;25.27;;;6.70;99.90;;;3.70;100.00;101436.22;4954439;28;20784;-79
2020/12/16 03:16:27;;;;;;;93.03;22.87;;;6.60;99.90;;;3.66;100.00;101430.22;4963191;28;20222;-79
2020/12/16 03:19:12;;;;;;;129.77;27.13;;;6.60;99.90;;;3.62;100.00;101435.28;4971938;28;20265;-80
2020/12/16 03:21:57;;;;;;;139.83;27.20;;;6.60;99.90;;;3.51;100.00;101420.63;4958715;28;20209;-80
2020/12/16 03:24:42;;;;;;;135.20;27.10;;;6.50;99.90;;;3.48;100.00;101422.28;4963896;28;20226;-80
2020/12/16 03:27:27;;;;;;;170.83;28.50;;;6.40;99.90;;;3.45;100.00;101419.69;4954526;28;20215;-79
2020/12/16 03:30:12;;;;;;;101.00;23.93;;;6.40;99.90;;;3.49;100.00;101409.50;4954529;28;20286;-80
2020/12/16 03:32:58;;;;;;;52.03;23.37;;;6.40;99.90;;;3.68;100.00;101417.44;4961403;28;20297;-80
2020/12/16 03:35:44;;;;;;;64.60;27.30;;;6.30;99.90;;;3.94;100.00;101417.75;4963951;28;20284;-80
2020/12/16 03:38:29;;;;;;;70.63;27.77;;;6.30;99.90;;;4.06;100.00;101411.91;4962639;28;20304;-80
2020/12/16 03:41:16;;;;;;;85.17;36.73;;;6.20;99.90;;;4.26;100.00;101419.78;4964805;28;20233;-80
2020/12/16 03:44:01;;;;;;;106.40;41.03;;;6.20;99.90;;;4.29;100.00;101426.66;4959388;28;20281;-79
2020/12/16 03:46:51;;;;;;;107.20;38.80;;;6.20;99.90;;;4.30;100.00;101441.19;4973649;28;20679;-80
2020/12/16 03:49:37;;;;;;;96.33;37.37;;;6.10;99.90;;;4.29;100.00;101445.44;4965529;28;20238;-81
2020/12/16 03:52:22;;;;;;;91.30;36.70;;;6.10;99.90;;;4.18;100.00;101437.63;4965292;28;20262;-79
2020/12/16 03:55:07;;;;;;;166.50;42.60;;;6.10;99.90;;;4.07;100.00;101430.69;4958924;28;20269;-79
2020/12/16 03:57:52;;;;;;;183.73;44.63;;;6.10;99.90;;;3.98;100.00;101439.13;4959959;28;20641;-79
2020/12/16 04:00:38;;;;;;;93.73;34.00;;;6.10;99.90;;;3.80;100.00;101435.47;4973293;28;20820;-80
2020/12/16 04:03:23;;;;;;;93.70;33.93;;;6.10;99.90;;;3.91;100.00;101434.75;4965154;28;20206;-80
2020/12/16 04:06:11;;;;;;;138.73;39.70;;;6.10;99.90;;;3.91;100.00;101435.59;4962200;28;20619;-80
2020/12/16 04:08:56;;;;;;;86.53;32.93;;;6.00;99.90;;;3.79;100.00;101436.31;4966152;28;20218;-80
2020/12/16 04:11:41;;;;;;;72.67;34.40;;;6.00;99.90;;;3.88;100.00;101435.56;4959910;28;20335;-79
2020/12/16 04:14:26;;;;;;;62.10;31.63;;;6.00;99.90;;;3.75;100.00;101441.38;4961399;28;20229;-80
2020/12/16 04:17:11;;;;;;;55.23;32.03;;;6.00;99.90;;;3.68;100.00;101440.47;4960422;28;20226;-81
2020/12/16 04:19:57;;;;;;;44.77;27.70;;;5.90;99.90;;;3.63;100.00;101431.84;4964444;28;20206;-80
2020/12/16 04:22:42;;;;;;;49.63;27.60;;;5.90;99.90;;;3.48;100.00;101433.38;4956097;28;20446;-80
2020/12/16 04:25:28;;;;;;;44.63;26.27;;;5.90;99.90;;;3.40;100.00;101437.53;4962973;28;20225;-80
2020/12/16 04:28:13;;;;;;;40.90;25.40;;;5.80;99.90;;;3.25;100.00;101439.84;4962550;28;20250;-79
2020/12/16 04:30:58;;;;;;;42.67;26.53;;;5.80;99.90;;;3.34;100.00;101442.56;4963371;28;20327;-82
2020/12/16 04:33:44;;;;;;;42.27;27.03;;;5.70;99.90;;;3.44;100.00;101440.97;4964172;28;20317;-80
2020/12/16 04:36:29;;;;;;;41.30;26.67;;;5.70;99.90;;;3.44;100.00;101436.72;4963998;28;20226;-80
2020/12/16 04:39:17;;;;;;;44.70;29.03;;;5.60;99.90;;;3.55;100.00;101438.59;4959372;28;20231;-79
2020/12/16 04:42:02;;;;;;;49.40;30.73;;;5.60;99.90;;;3.43;100.00;101435.00;4965129;28;20221;-80
2020/12/16 04:44:48;;;;;;;46.73;28.67;;;5.60;99.90;;;3.66;100.00;101427.66;4952237;28;20222;-80
2020/12/16 04:47:33;;;;;;;61.30;32.93;;;5.50;99.90;;;3.59;100.00;101424.97;4954747;28;20213;-79
2020/12/16 04:50:18;;;;;;;58.67;34.17;;;5.50;99.90;;;3.69;100.00;101417.44;4948034;28;20210;-78
2020/12/16 04:53:06;;;;;;;52.57;30.30;;;5.50;99.90;;;3.45;100.00;101423.09;4957841;28;20277;-80
2020/12/16 04:55:53;;;;;;;51.03;29.53;;;5.40;99.90;;;3.35;100.00;101428.91;4954820;28;20808;-79
2020/12/16 04:58:39;;;;;;;53.93;32.20;;;5.40;99.90;;;3.51;100.00;101418.09;4946668;28;20214;-79
2020/12/16 05:01:24;;;;;;;55.77;31.07;;;5.40;99.90;;;3.62;100.00;101422.47;4953999;28;20205;-79
2020/12/16 05:04:10;;;;;;;56.73;31.33;;;5.40;99.90;;;3.58;100.00;101418.16;4956668;28;20230;-80
2020/12/16 05:06:55;;;;;;;57.13;32.57;;;5.40;99.90;;;3.49;100.00;101411.22;4956990;28;20285;-81
2020/12/16 05:09:47;;;;;;;58.63;32.23;;;5.30;99.90;;;3.51;100.00;101406.97;4955136;28;20263;-79
2020/12/16 05:12:36;;;;;;;54.30;30.40;;;5.40;99.90;;;3.43;100.00;101404.31;4958208;28;20748;-79
2020/12/16 05:15:24;;;;;;;56.87;29.10;;;5.30;99.90;;;3.37;100.00;101411.91;4961202;28;20729;-80
2020/12/16 05:18:16;;;;;;;49.10;26.60;;;5.30;99.90;;;3.33;100.00;101407.59;4962375;28;20239;-80
2020/12/16 05:21:03;;;;;;;50.07;27.47;;;5.30;99.90;;;3.31;100.00;101414.41;4955677;28;20262;-80
2020/12/16 05:23:48;;;;;;;49.47;27.70;;;5.30;99.90;;;3.32;100.00;101411.84;4961408;28;20269;-80
2020/12/16 05:26:34;;;;;;;43.80;25.50;;;5.20;99.90;;;3.34;100.00;101414.44;4960580;28;20230;-79
2020/12/16 05:29:27;;;;;;;43.67;26.23;;;5.20;99.90;;;3.29;100.00;101406.69;4959595;28;20242;-79
2020/12/16 05:32:22;;;;;;;43.67;25.93;;;5.20;99.90;;;3.26;100.00;101406.66;4956419;28;20218;-79
2020/12/16 05:35:22;;;;;;;39.50;23.17;;;5.20;99.90;;;3.07;100.00;101413.19;4958974;28;20274;-79
2020/12/16 05:38:10;;;;;;;45.43;25.23;;;5.20;99.90;;;3.25;100.00;101414.28;4962295;28;20202;-79
2020/12/16 05:40:55;;;;;;;40.03;24.63;;;5.20;99.90;;;3.13;100.00;101408.16;4961242;28;20206;-80
2020/12/16 05:43:40;;;;;;;46.50;25.20;;;5.10;99.90;;;3.09;100.00;101408.09;4956525;28;20250;-79
2020/12/16 05:46:26;;;;;;;37.30;21.13;;;5.10;99.90;;;2.99;100.00;101407.09;4957335;28;20241;-79
2020/12/16 05:49:22;;;;;;;39.60;22.97;;;5.10;99.90;;;2.89;100.00;101415.47;4960842;28;20270;-79
2020/12/16 05:52:07;;;;;;;40.23;23.07;;;5.00;99.90;;;2.83;100.00;101423.03;4960358;28;20285;-81
2020/12/16 05:54:52;;;;;;;36.40;22.10;;;5.00;99.90;;;2.75;100.00;101423.75;4963025;28;20251;-80
2020/12/16 05:57:38;;;;;;;36.40;20.63;;;5.00;99.90;;;2.52;100.00;101432.72;4961967;28;20210;-80
2020/12/16 06:00:23;;;;;;;33.80;19.50;;;4.90;99.90;;;2.30;100.00;101424.66;4965223;28;20575;-80
2020/12/16 06:03:16;;;;;;;27.57;17.93;;;4.90;99.90;;;2.14;100.00;101435.44;4964371;28;20201;-79
2020/12/16 06:06:04;;;;;;;32.50;18.40;;;4.90;99.90;;;2.02;100.00;101436.94;4960058;28;20194;-81
2020/12/16 06:08:49;;;;;;;27.43;16.10;;;4.80;99.90;;;1.87;100.00;101444.28;4963292;28;20298;-80
2020/12/16 06:11:49;;;;;;;24.80;16.47;;;4.80;99.90;;;1.82;100.00;101450.97;4960854;28;20210;-80
2020/12/16 06:14:39;;;;;;;27.90;16.20;;;4.70;99.90;;;1.86;100.00;101457.84;4960211;28;20364;-79
2020/12/16 06:17:24;;;;;;;30.63;19.57;;;4.70;99.90;;;2.19;100.00;101457.66;4963402;28;20576;-79
2020/12/16 06:20:15;;;;;;;30.97;18.67;;;4.60;99.90;;;2.17;100.00;101451.69;4947770;28;20205;-79
2020/12/16 06:23:03;;;;;;;32.13;17.77;;;4.50;99.90;;;2.18;100.00;101455.09;4959101;28;20586;-80
2020/12/16 06:25:50;;;;;;;29.07;18.67;;;4.50;99.90;;;2.07;100.00;101458.28;4962317;28;20249;-80
2020/12/16 06:28:36;;;;;;;33.57;19.63;;;4.40;99.90;;;2.46;100.00;101451.34;4952216;28;20230;-80
2020/12/16 06:31:26;;;;;;;30.50;18.97;;;4.40;99.90;;;2.46;100.00;101459.00;4960983;28;20253;-79
2020/12/16 06:34:14;;;;;;;33.23;20.20;;;4.40;99.90;;;2.54;100.00;101462.56;4960898;28;20250;-81
2020/12/16 06:37:00;;;;;;;36.97;22.33;;;4.30;99.90;;;2.90;100.00;101465.75;4962200;28;20301;-80
2020/12/16 06:39:45;;;;;;;45.00;23.67;;;4.30;99.90;;;2.79;100.00;101463.88;4964403;28;20233;-80
2020/12/16 06:42:36;;;;;;;43.10;22.87;;;4.30;99.90;;;2.63;100.00;101472.09;4951245;28;20226;-80
2020/12/16 06:45:21;;;;;;;46.50;24.27;;;4.30;99.90;;;2.90;100.00;101458.06;4957988;28;20263;-80
2020/12/16 06:48:34;;;;;;;49.73;24.47;;;4.30;99.90;;;2.48;100.00;101457.38;4963025;28;20214;-80
2020/12/16 06:51:21;;;;;;;42.47;23.63;;;4.30;99.90;;;2.68;100.00;101460.25;4954734;28;20242;-80
2020/12/16 06:54:09;;;;;;;48.10;24.23;;;4.30;99.90;;;2.95;100.00;101453.88;4961584;28;20254;-79
2020/12/16 06:57:20;;;;;;;47.60;26.57;;;4.30;99.90;;;2.97;100.00;101444.56;4971226;28;20243;-80
2020/12/16 07:00:05;;;;;;;51.23;27.03;;;4.30;99.90;;;3.11;100.00;101453.28;4955438;28;20210;-80
2020/12/16 07:02:51;;;;;;;53.83;26.60;;;4.30;99.90;;;3.18;100.00;101448.28;4960002;28;20218;-81
2020/12/16 07:05:40;;;;;;;62.70;29.07;;;4.30;99.90;;;3.10;100.00;101443.91;4964336;28;20286;-81
2020/12/16 07:08:28;;;;;;;60.77;28.70;;;4.30;99.90;;;3.18;100.00;101435.50;4965803;28;20218;-80
2020/12/16 07:11:14;;;;;;;61.30;30.73;;;4.30;99.90;;;3.38;100.00;101434.09;4948083;28;20568;-80
2020/12/16 07:14:10;;;;;;;66.80;29.13;;;4.40;99.90;;;3.26;100.00;101439.91;4960599;28;20254;-80
2020/12/16 07:17:05;;;;;;;64.03;29.47;;;4.40;99.90;;;3.29;100.00;101439.94;4963609;28;20734;-80
2020/12/16 07:19:53;;;;;;;70.47;32.87;;;4.40;99.90;;;3.44;100.00;101444.41;4960693;28;20210;-81
2020/12/16 07:22:40;;;;;;;79.07;32.83;;;4.50;99.90;;;3.39;100.00;101438.34;4959439;28;20210;-79
2020/12/16 07:25:25;;;;;;;67.30;30.80;;;4.70;99.90;;;3.35;100.00;101441.69;4961751;28;20225;-79
2020/12/16 07:28:13;;;;;;;68.60;32.93;;;4.50;99.90;;;3.50;100.00;101441.94;4949282;28;20202;-80
2020/12/16 07:31:05;;;;;;;77.30;33.63;;;4.50;99.90;;;3.50;100.00;101435.97;4954831;28;20218;-79
2020/12/16 07:33:51;;;;;;;76.23;32.40;;;4.60;99.90;;;3.35;100.00;101436.59;4955307;28;20230;-81
2020/12/16 07:36:38;;;;;;;71.93;33.73;;;4.60;99.90;;;3.36;100.00;101437.47;4947999;28;20242;-79
2020/12/16 07:39:24;;;;;;;67.43;31.93;;;4.60;99.90;;;3.40;100.00;101423.88;4940452;28;20634;-79
2020/12/16 07:42:09;;;;;;;71.20;31.90;;;4.60;99.90;;;3.42;100.00;101422.19;4954081;28;20209;-79
2020/12/16 07:44:56;;;;;;;72.23;32.13;;;4.70;99.90;;;3.45;100.00;101422.25;4954093;28;20362;-81
2020/12/16 07:47:43;;;;;;;68.17;32.40;;;4.70;99.90;;;3.42;100.00;101433.28;4957599;28;20217;-79
2020/12/16 07:50:28;;;;;;;67.20;31.37;;;4.70;99.90;;;3.44;100.00;101434.19;4949845;28;20585;-80
2020/12/16 07:53:16;;;;;;;75.50;31.93;;;4.80;99.90;;;3.44;100.00;101439.28;4950911;28;20222;-80
2020/12/16 07:56:03;;;;;;;63.10;31.07;;;4.80;99.90;;;3.46;100.00;101424.81;4955691;28;20226;-80
2020/12/16 07:58:49;;;;;;;62.43;31.13;;;4.80;99.90;;;3.57;100.00;101432.63;4958441;28;20214;-81
2020/12/16 08:01:35;;;;;;;71.23;32.97;;;4.80;99.90;;;3.67;100.00;101426.78;4958131;28;20227;-80
2020/12/16 08:04:20;;;;;;;62.07;30.83;;;4.80;99.90;;;3.69;100.00;101425.13;4953879;28;20254;-80
2020/12/16 08:07:17;;;;;;;66.20;30.90;;;4.90;99.90;;;3.61;100.00;101428.44;4959355;28;20250;-80
2020/12/16 08:10:06;;;;;;;64.43;30.67;;;4.90;99.90;;;3.54;100.00;101442.81;4962492;28;20595;-79
2020/12/16 08:12:53;;;;;;;58.73;29.27;;;4.90;99.90;;;3.51;100.00;101438.53;4951895;28;20206;-80
2020/12/16 08:15:39;;;;;;;56.00;29.60;;;4.90;99.90;;;3.66;100.00;101444.69;4954469;28;20569;-79
2020/12/16 08:18:25;;;;;;;56.73;29.63;;;5.00;99.90;;;3.55;100.00;101436.88;4957307;28;20300;-79
2020/12/16 08:21:19;;;;;;;60.97;31.43;;;5.00;99.90;;;3.63;100.00;101445.53;4958179;28;20694;-80
2020/12/16 08:24:04;;;;;;;63.53;30.30;;;5.00;99.90;;;3.75;100.00;101433.69;4958334;28;20288;-78
2020/12/16 08:26:50;;;;;;;55.07;28.03;;;5.00;99.90;;;3.61;100.00;101438.66;4958215;28;20227;-80
2020/12/16 08:29:38;;;;;;;58.50;28.83;;;5.10;99.90;;;3.70;100.00;101436.22;4955204;28;20584;-80
2020/12/16 08:32:26;;;;;;;55.93;28.70;;;5.10;99.90;;;3.75;100.00;101436.25;4959524;28;20253;-81
2020/12/16 08:35:19;;;;;;;50.57;27.50;;;5.10;99.90;;;3.88;100.00;101439.84;4951248;28;20251;-80
2020/12/16 08:38:07;;;;;;;49.30;25.90;;;5.10;99.90;;;3.92;100.00;101447.56;4956664;28;20218;-79
2020/12/16 08:40:55;;;;;;;57.00;28.27;;;5.20;99.90;;;4.03;100.00;101445.13;4954126;28;20213;-79
2020/12/16 08:43:43;;;;;;;53.00;28.33;;;5.20;99.90;;;4.08;100.00;101446.06;4948905;28;20246;-80
2020/12/16 08:46:28;;;;;;;55.17;28.40;;;5.20;99.90;;;4.31;100.00;101448.88;4953104;28;20266;-80
2020/12/16 08:49:14;;;;;;;59.80;30.57;;;5.30;99.90;;;4.94;100.00;101450.28;4956472;28;20218;-80
2020/12/16 08:52:00;;;;;;;55.10;30.33;;;5.30;99.90;;;4.78;100.00;101459.56;4955128;28;20202;-80
2020/12/16 08:54:45;;;;;;;57.13;30.10;;;5.40;99.90;;;4.38;100.00;101463.47;4958548;28;20226;-80
2020/12/16 08:57:30;;;;;;;54.63;27.80;;;5.40;99.90;;;4.32;100.00;101460.81;4950688;28;20254;-80
2020/12/16 09:00:16;;;;;;;57.70;28.80;;;5.50;99.90;;;4.33;100.00;101459.13;4958766;28;20242;-80
2020/12/16 09:03:07;;;;;;;47.97;23.73;;;5.60;99.90;;;4.43;100.00;101466.06;4959728;28;20306;-80
2020/12/16 09:06:01;;;;;;;54.77;27.80;;;5.70;99.90;;;4.74;100.00;101463.81;4948285;28;20294;-80
2020/12/16 09:08:48;;;;;;;47.73;25.43;;;5.80;99.90;;;5.13;100.00;101462.41;4958740;28;20210;-79
2020/12/16 09:11:33;;;;;;;48.60;27.00;;;5.80;99.90;;;5.94;100.00;101458.59;4951230;28;20245;-80
2020/12/16 09:14:20;;;;;;;52.87;29.50;;;5.90;99.90;;;6.60;100.00;101448.50;4948751;28;20282;-80
2020/12/16 09:17:07;;;;;;;125.63;37.57;;;6.00;99.90;;;7.03;100.00;101440.81;4952447;28;20289;-80
2020/12/16 09:19:53;;;;;;;150.10;41.53;;;6.20;99.90;;;7.24;100.00;101443.34;4953466;28;20217;-80
2020/12/16 09:22:38;;;;;;;78.60;36.27;;;6.40;99.90;;;7.16;100.00;101443.34;4953595;28;20211;-80
2020/12/16 09:25:24;;;;;;;88.37;40.57;;;6.70;99.90;;;7.42;100.00;101437.31;4950172;28;20633;-79
2020/12/16 09:28:10;;;;;;;369.07;65.23;;;7.00;99.90;;;8.18;100.00;101433.56;4957283;28;20573;-80
2020/12/16 09:30:55;;;;;;;595.17;97.07;;;7.40;99.90;;;8.50;100.00;101426.53;4953662;28;20210;-80
2020/12/16 09:33:40;;;;;;;101.23;41.47;;;7.70;99.90;;;8.52;100.00;101429.94;4953680;28;20234;-81
2020/12/16 09:36:27;;;;;;;155.63;45.90;;;8.10;99.90;;;8.99;100.00;101426.13;4952701;28;20265;-83
2020/12/16 09:39:12;;;;;;;86.03;38.93;;;8.40;99.90;;;9.73;100.00;101427.94;4958144;28;20218;-81
2020/12/16 09:42:09;;;;;;;77.13;41.87;;;8.80;99.90;;;9.42;100.00;101423.13;4954749;28;20242;-82
2020/12/16 09:45:09;;;;;;;76.07;40.03;;;9.10;99.90;;;9.68;100.00;101416.78;4954503;28;20231;-83
2020/12/16 09:47:54;;;;;;;570.43;97.60;;;9.60;99.90;;;9.90;100.00;101426.88;4956726;28;20213;-82
2020/12/16 09:50:42;;;;;;;75.37;38.23;;;9.90;99.90;;;9.95;100.00;101417.31;4956271;28;20721;-83
2020/12/16 09:53:27;;;;;;;57.77;34.47;;;10.30;99.90;;;10.11;100.00;101423.13;4945422;28;20265;-80
2020/12/16 09:56:23;;;;;;;44.50;30.10;;;10.80;99.90;;;9.83;100.00;101416.59;4949466;28;20273;-81
2020/12/16 09:59:18;;;;;;;49.57;29.20;;;11.20;99.90;;;10.70;100.00;101415.38;4946441;28;20213;-81
2020/12/16 10:02:04;;;;;;;34.53;24.63;;;11.60;99.90;;;10.71;100.00;101412.75;4950235;28;20207;-81
2020/12/16 10:04:49;;;;;;;23.00;17.20;;;12.00;99.90;;;9.39;100.00;101423.16;4956233;28;20237;-81
2020/12/16 10:07:35;;;;;;;22.40;16.70;;;12.40;99.90;;;10.30;100.00;101421.97;4960464;28;20222;-81
2020/12/16 10:10:21;;;;;;;16.73;11.57;;;12.80;99.90;;;10.19;100.00;101413.53;4959021;28;20218;-80
2020/12/16 10:13:06;;;;;;;13.63;8.13;;;13.10;99.90;;;10.47;100.00;101410.59;4954172;28;20210;-81
2020/12/16 10:15:52;;;;;;;10.10;8.20;;;13.40;99.90;;;10.61;100.00;101400.00;4962094;28;20257;-80
2020/12/16 10:18:38;;;;;;;7.93;6.00;;;13.70;99.90;;;10.71;100.00;101394.66;4962392;28;20214;-81
2020/12/16 10:21:23;;;;;;;8.13;5.90;;;13.90;99.90;;;10.63;100.00;101393.06;4962872;28;20210;-81
2020/12/16 10:24:09;;;;;;;9.87;6.30;;;14.20;99.90;;;12.02;100.00;101383.50;4961457;28;20228;-81
2020/12/16 10:26:54;;;;;;;8.63;6.60;;;14.40;99.90;;;12.85;100.00;101375.44;4957482;28;20241;-81
2020/12/16 10:29:39;;;;;;;7.67;6.03;;;14.70;99.90;;;12.62;100.00;101376.91;4959498;28;20218;-81
2020/12/16 10:32:25;;;;;;;7.77;5.90;;;15.10;99.90;;;13.22;100.00;101369.25;4964883;28;20210;-82
2020/12/16 10:35:11;;;;;;;7.87;5.77;;;15.60;99.90;;;13.62;100.00;101359.50;4960372;28;20253;-82
2020/12/16 10:37:56;;;;;;;7.20;5.47;;;16.00;99.90;;;13.69;100.00;101358.44;4970942;28;20238;-81
2020/12/16 10:40:42;;;;;;;6.50;5.23;;;16.50;99.90;;;14.23;100.00;101351.53;4958830;28;20230;-81
2020/12/16 10:43:27;;;;;;;6.27;5.00;;;17.00;99.90;;;14.53;100.00;101352.31;4963361;28;20238;-83
2020/12/16 10:46:12;;;;;;;6.00;4.83;;;17.60;99.90;;;14.61;100.00;101348.59;4967056;28;20208;-81
2020/12/16 10:48:58;;;;;;;7.07;5.60;;;18.20;99.90;;;14.64;100.00;101344.16;4964521;28;20225;-82
2020/12/16 10:51:44;;;;;;;7.47;5.60;;;18.80;99.90;;;14.34;100.00;101341.66;4966556;28;20238;-82
2020/12/16 10:54:29;;;;;;;9.27;6.23;;;19.40;99.90;;;13.97;100.00;101345.44;4965449;28;20245;-82
2020/12/16 10:57:15;;;;;;;8.80;6.50;;;19.90;99.90;;;13.97;100.00;101340.22;4963728;28;20285;-82
2020/12/16 11:00:01;;;;;;;9.10;6.27;;;20.40;99.90;;;13.88;100.00;101339.66;4963347;28;20239;-81
2020/12/16 11:02:48;;;;;;;7.50;6.67;;;20.90;99.90;;;13.87;100.00;101328.41;4958912;28;20211;-82
2020/12/16 11:05:35;;;;;;;10.40;6.97;;;21.50;99.90;;;13.86;100.00;101337.09;4958500;28;20319;-83
2020/12/16 11:08:20;;;;;;;8.23;6.47;;;21.80;99.90;;;14.16;100.00;101329.25;4964064;28;20214;-82
2020/12/16 11:11:05;;;;;;;6.67;5.93;;;22.10;99.90;;;13.81;100.00;101315.59;4964780;28;20208;-82
2020/12/16 11:13:52;;;;;;;6.20;5.60;;;22.50;99.90;;;13.81;100.00;101313.00;4966084;28;20235;-82
2020/12/16 11:16:40;;;;;;;6.70;5.93;;;22.70;99.90;;;14.34;100.00;101302.59;4960246;28;20613;-81
2020/12/16 11:19:26;;;;;;;6.37;5.47;;;23.00;99.90;;;14.06;100.00;101309.63;4968149;28;20233;-82
2020/12/16 11:22:12;;;;;;;8.37;5.47;;;23.20;99.30;;;14.01;100.00;101314.97;4963765;28;20217;-83
2020/12/16 11:24:57;;;;;;;7.30;5.50;;;23.40;97.80;;;14.15;100.00;101317.13;4955501;28;20305;-82
2020/12/16 11:27:42;;;;;;;8.00;5.47;;;23.50;97.30;;;13.76;100.00;101320.09;4968878;28;20295;-82